Time;durP1;ratioP1;P1;durP2;ratioP2;P2;SDS_P1;SDS_P2;PMS_P1;PMS_P2;Temp;Humidity;BMP_temperature;BMP_pressure;BME280_temperature;BME280_humidity;BME280_pressure;Samples;Min_cycle;Max_cycle;Signal;HPM_P1;HPM_P2
2022/06/25 00:01:27;;;;;;;6.22;3.72;;;;;;;;;;8419237;28;20036;-86
2022/06/25 00:05:29;;;;;;;7.05;4.00;;;;;;;;;;8421781;28;20036;-86
2022/06/25 00:09:34;;;;;;;5.68;3.70;;;;;;;;;;8418341;28;20040;-89
2022/06/25 00:13:36;;;;;;;7.68;3.85;;;;;;;;;;8421416;28;20064;-85
2022/06/25 00:17:39;;;;;;;5.93;3.60;;;;;;;;;;8420798;28;20048;-84
2022/06/25 00:21:42;;;;;;;10.43;3.92;;;;;;;;;;8414215;28;20491;-87
2022/06/25 00:25:46;;;;;;;5.88;3.85;;;;;;;;;;8418402;28;20055;-87
2022/06/25 00:29:48;;;;;;;5.38;3.80;;;;;;;;;;8412362;28;20040;-89
2022/06/25 00:33:51;;;;;;;5.68;3.42;;;;;;;;;;8413995;28;20041;-88
2022/06/25 00:37:54;;;;;;;5.68;3.78;;;;;;;;;;8405581;28;20051;-89
2022/06/25 00:41:58;;;;;;;6.03;4.10;;;;;;;;;;8406161;28;20622;-85
2022/06/25 00:46:03;;;;;;;5.15;3.72;;;;;;;;;;8410728;28;20055;-88
2022/06/25 00:50:08;;;;;;;7.22;3.70;;;;;;;;;;8409640;28;20056;-85
2022/06/25 00:54:11;;;;;;;5.53;3.85;;;;;;;;;;8397909;28;20051;-88
2022/06/25 00:58:21;;;;;;;6.18;3.58;;;;;;;;;;8419428;28;20052;-85
2022/06/25 01:02:24;;;;;;;6.00;3.78;;;;;;;;;;8418404;28;20472;-89
2022/06/25 01:06:30;;;;;;;5.75;3.75;;;;;;;;;;8409500;28;20454;-88
2022/06/25 01:10:32;;;;;;;6.38;3.58;;;;;;;;;;8404322;28;20089;-88
2022/06/25 01:14:37;;;;;;;5.50;3.85;;;;;;;;;;8405369;28;20048;-86
2022/06/25 01:18:39;;;;;;;6.63;3.72;;;;;;;;;;8398098;28;20121;-85
2022/06/25 01:22:43;;;;;;;7.55;3.90;;;;;;;;;;8413476;28;20044;-89
2022/06/25 01:26:46;;;;;;;7.22;3.58;;;;;;;;;;8410886;28;20494;-85
2022/06/25 01:30:48;;;;;;;6.80;3.67;;;;;;;;;;8412636;28;20044;-86
2022/06/25 01:34:51;;;;;;;6.18;4.10;;;;;;;;;;8411030;28;20407;-89
2022/06/25 01:38:55;;;;;;;6.55;3.45;;;;;;;;;;8397322;28;20048;-83
2022/06/25 01:43:00;;;;;;;6.45;3.88;;;;;;;;;;8404844;28;20475;-83
2022/06/25 01:47:03;;;;;;;7.72;3.72;;;;;;;;;;8412518;28;20400;-86
2022/06/25 01:51:05;;;;;;;6.57;3.83;;;;;;;;;;8424331;28;20131;-83
2022/06/25 01:55:11;;;;;;;6.20;3.63;;;;;;;;;;8409588;28;20044;-87
2022/06/25 01:59:13;;;;;;;6.35;4.00;;;;;;;;;;8400637;28;20036;-83
2022/06/25 02:03:16;;;;;;;8.25;4.22;;;;;;;;;;8413378;28;21663;-87
2022/06/25 02:07:19;;;;;;;10.25;4.25;;;;;;;;;;8399805;28;20044;-87
2022/06/25 02:11:24;;;;;;;7.50;3.63;;;;;;;;;;8403115;28;20060;-83
2022/06/25 02:15:26;;;;;;;7.80;4.30;;;;;;;;;;8412232;28;20040;-87
2022/06/25 02:19:29;;;;;;;5.40;3.95;;;;;;;;;;8414282;28;20040;-82
2022/06/25 02:23:32;;;;;;;6.35;3.42;;;;;;;;;;8410902;28;20048;-88
2022/06/25 02:27:37;;;;;;;7.63;3.90;;;;;;;;;;8409698;28;20044;-87
2022/06/25 02:31:39;;;;;;;6.70;3.60;;;;;;;;;;8412991;28;20051;-84
2022/06/25 02:35:42;;;;;;;5.47;3.70;;;;;;;;;;8417544;28;20094;-88
2022/06/25 02:39:44;;;;;;;5.00;3.67;;;;;;;;;;8407227;28;20238;-87
2022/06/25 02:43:49;;;;;;;6.35;3.80;;;;;;;;;;8418462;28;20494;-86
2022/06/25 02:47:51;;;;;;;5.88;3.78;;;;;;;;;;8416212;28;20079;-82
2022/06/25 02:51:54;;;;;;;6.97;4.05;;;;;;;;;;8415262;28;20044;-85
2022/06/25 03:00:18;;;;;;;8.80;3.88;;;;;;;;;;8410413;28;20036;-83
2022/06/25 03:04:20;;;;;;;6.80;4.05;;;;;;;;;;8403521;28;20055;-88
2022/06/25 03:08:23;;;;;;;5.13;3.80;;;;;;;;;;8420260;28;20431;-87
2022/06/25 03:12:25;;;;;;;5.60;3.97;;;;;;;;;;8411629;28;20044;-85
2022/06/25 03:16:30;;;;;;;6.45;3.80;;;;;;;;;;8415626;28;20044;-85
2022/06/25 03:20:32;;;;;;;7.63;4.50;;;;;;;;;;8413980;28;20071;-83
2022/06/25 03:24:35;;;;;;;6.20;4.00;;;;;;;;;;8407647;28;20044;-83
2022/06/25 03:28:37;;;;;;;6.22;4.15;;;;;;;;;;8423851;28;20549;-85
2022/06/25 03:32:41;;;;;;;6.97;4.63;;;;;;;;;;8419880;28;20449;-82
2022/06/25 03:36:44;;;;;;;6.97;4.25;;;;;;;;;;8411580;28;20047;-83
2022/06/25 03:40:46;;;;;;;5.97;3.80;;;;;;;;;;8413660;28;20047;-84
2022/06/25 03:44:49;;;;;;;8.20;3.90;;;;;;;;;;8417203;28;20044;-84
2022/06/25 03:48:53;;;;;;;8.27;4.00;;;;;;;;;;8415604;28;20528;-85
2022/06/25 03:52:56;;;;;;;8.30;3.90;;;;;;;;;;8412300;28;20044;-85
2022/06/25 03:56:58;;;;;;;6.22;3.75;;;;;;;;;;8402459;28;20119;-82
2022/06/25 04:01:01;;;;;;;7.57;3.92;;;;;;;;;;8410305;28;20411;-88
2022/06/25 04:05:06;;;;;;;6.35;3.88;;;;;;;;;;8418650;28;20040;-83
2022/06/25 04:09:08;;;;;;;5.80;4.03;;;;;;;;;;8409967;28;20591;-89
2022/06/25 04:13:11;;;;;;;5.03;3.72;;;;;;;;;;8406661;28;20091;-82
2022/06/25 04:17:14;;;;;;;5.53;3.53;;;;;;;;;;8411934;28;20040;-83
2022/06/25 04:21:18;;;;;;;7.15;3.53;;;;;;;;;;8411288;28;20052;-86
2022/06/25 04:25:21;;;;;;;5.82;3.63;;;;;;;;;;8407473;28;20040;-83
2022/06/25 04:29:23;;;;;;;7.15;3.58;;;;;;;;;;8413381;28;20470;-89
2022/06/25 04:33:25;;;;;;;5.72;3.35;;;;;;;;;;8409576;28;20051;-86
2022/06/25 04:37:30;;;;;;;4.30;3.15;;;;;;;;;;8406125;28;20059;-86
2022/06/25 04:41:32;;;;;;;5.53;3.58;;;;;;;;;;8403474;28;20041;-87
2022/06/25 04:45:35;;;;;;;6.20;3.72;;;;;;;;;;8417563;28;20420;-86
2022/06/25 04:49:37;;;;;;;6.53;3.17;;;;;;;;;;8405619;28;20052;-83
2022/06/25 04:57:58;;;;;;;6.40;3.53;;;;;;;;;;8417824;28;20079;-83
2022/06/25 05:02:00;;;;;;;5.35;3.28;;;;;;;;;;8415353;28;20036;-85
2022/06/25 05:06:06;;;;;;;7.40;3.35;;;;;;;;;;8417787;28;20059;-83
2022/06/25 05:10:10;;;;;;;5.43;3.80;;;;;;;;;;8405185;28;20050;-88
2022/06/25 05:14:13;;;;;;;6.07;4.07;;;;;;;;;;8417725;28;20040;-89
2022/06/25 05:18:16;;;;;;;3.90;3.05;;;;;;;;;;8419911;28;20051;-92
2022/06/25 05:22:18;;;;;;;10.93;3.13;;;;;;;;;;8413364;28;20407;-84
2022/06/25 05:26:23;;;;;;;5.22;2.95;;;;;;;;;;8413913;28;20036;-85
2022/06/25 05:30:25;;;;;;;6.75;3.03;;;;;;;;;;8421910;28;20051;-89
2022/06/25 05:34:28;;;;;;;5.68;3.00;;;;;;;;;;8419805;28;20052;-93
2022/06/25 05:38:31;;;;;;;4.88;2.63;;;;;;;;;;8405583;28;20636;-85
2022/06/25 05:42:36;;;;;;;5.50;2.88;;;;;;;;;;8410580;28;20097;-86
2022/06/25 05:46:39;;;;;;;8.50;2.90;;;;;;;;;;8407089;28;20131;-83
2022/06/25 05:50:42;;;;;;;7.10;3.47;;;;;;;;;;8413891;28;20067;-90
2022/06/25 05:54:45;;;;;;;7.85;2.97;;;;;;;;;;8407661;28;20044;-82
2022/06/25 05:58:49;;;;;;;7.57;3.10;;;;;;;;;;8413159;28;20139;-85
2022/06/25 06:02:52;;;;;;;9.70;3.03;;;;;;;;;;8397467;28;20063;-83
2022/06/25 06:06:55;;;;;;;7.05;3.35;;;;;;;;;;8416330;28;20047;-84
2022/06/25 06:10:57;;;;;;;7.53;3.10;;;;;;;;;;8417136;28;20080;-83
2022/06/25 06:15:04;;;;;;;10.95;3.88;;;;;;;;;;8416961;28;20689;-84
2022/06/25 06:19:07;;;;;;;7.88;3.40;;;;;;;;;;8414174;28;20530;-84
2022/06/25 06:23:10;;;;;;;6.93;2.72;;;;;;;;;;8424432;28;20056;-84
2022/06/25 06:27:13;;;;;;;8.50;3.70;;;;;;;;;;8423268;28;20036;-84
2022/06/25 06:31:17;;;;;;;11.45;3.05;;;;;;;;;;8416490;28;20055;-83
2022/06/25 06:35:20;;;;;;;11.73;3.53;;;;;;;;;;8422153;28;20059;-83
2022/06/25 06:39:23;;;;;;;15.63;8.13;;;;;;;;;;8405954;28;20045;-85
2022/06/25 06:43:26;;;;;;;16.42;5.63;;;;;;;;;;8410445;28;20036;-85
2022/06/25 06:47:31;;;;;;;7.85;3.05;;;;;;;;;;8423312;28;20060;-89
2022/06/25 06:51:33;;;;;;;7.95;3.33;;;;;;;;;;8417136;28;20098;-85
2022/06/25 06:55:36;;;;;;;9.77;3.83;;;;;;;;;;8420185;28;20043;-85
2022/06/25 06:59:39;;;;;;;16.90;5.60;;;;;;;;;;8421665;28;20052;-86
2022/06/25 07:03:45;;;;;;;16.70;6.47;;;;;;;;;;8411234;28;20052;-84
2022/06/25 07:07:51;;;;;;;8.50;2.90;;;;;;;;;;8424286;28;20495;-84
2022/06/25 07:12:04;;;;;;;12.05;5.88;;;;;;;;;;8423757;28;20088;-84
2022/06/25 07:16:07;;;;;;;8.85;4.25;;;;;;;;;;8424689;28;20135;-91
2022/06/25 07:20:12;;;;;;;8.57;3.13;;;;;;;;;;8416418;28;20479;-84
2022/06/25 07:24:15;;;;;;;10.07;2.95;;;;;;;;;;8413750;28;20040;-88
2022/06/25 07:28:18;;;;;;;6.88;2.60;;;;;;;;;;8410681;28;20051;-93
2022/06/25 07:32:21;;;;;;;9.85;3.00;;;;;;;;;;8424107;28;20049;-84
2022/06/25 07:36:25;;;;;;;10.52;3.28;;;;;;;;;;8423872;28;20083;-87
2022/06/25 07:40:29;;;;;;;8.95;3.72;;;;;;;;;;8406966;28;20131;-83
2022/06/25 07:44:32;;;;;;;9.63;4.45;;;;;;;;;;8418832;28;20079;-94
2022/06/25 07:48:35;;;;;;;8.48;3.28;;;;;;;;;;8404084;28;20044;-83
2022/06/25 07:52:39;;;;;;;7.90;2.88;;;;;;;;;;8416379;28;20135;-82
2022/06/25 07:56:42;;;;;;;8.98;3.60;;;;;;;;;;8409900;28;20052;-82
2022/06/25 08:00:46;;;;;;;7.13;2.78;;;;;;;;;;8406651;28;20040;-82
2022/06/25 08:04:48;;;;;;;6.78;2.90;;;;;;;;;;8411412;28;20048;-83
2022/06/25 08:08:53;;;;;;;6.82;2.63;;;;;;;;;;8421804;28;20115;-83
2022/06/25 08:12:56;;;;;;;7.75;2.83;;;;;;;;;;8421380;28;20048;-85
2022/06/25 08:16:59;;;;;;;8.32;2.80;;;;;;;;;;8420075;28;20045;-89
2022/06/25 08:21:02;;;;;;;6.63;3.42;;;;;;;;;;8404817;28;20068;-84
2022/06/25 08:25:09;;;;;;;7.40;2.30;;;;;;;;;;8424353;28;20540;-84
2022/06/25 08:29:12;;;;;;;5.05;2.53;;;;;;;;;;8423647;28;20051;-85
2022/06/25 08:33:16;;;;;;;8.02;3.10;;;;;;;;;;8412207;28;20048;-84
2022/06/25 08:37:18;;;;;;;3.95;2.30;;;;;;;;;;8402606;28;20442;-87
2022/06/25 08:41:24;;;;;;;5.30;2.40;;;;;;;;;;8417724;28;20052;-82
2022/06/25 08:45:26;;;;;;;8.45;2.83;;;;;;;;;;8418289;28;20044;-93
2022/06/25 08:49:32;;;;;;;10.02;2.90;;;;;;;;;;8416117;28;20522;-84
2022/06/25 08:53:36;;;;;;;7.03;2.50;;;;;;;;;;8404260;28;20142;-90
2022/06/25 08:57:41;;;;;;;5.68;2.92;;;;;;;;;;8422784;28;20693;-83
2022/06/25 09:01:44;;;;;;;4.18;2.55;;;;;;;;;;8409930;28;20053;-87
2022/06/25 09:05:48;;;;;;;4.57;2.35;;;;;;;;;;8407889;28;20040;-82
2022/06/25 09:09:52;;;;;;;4.65;2.40;;;;;;;;;;8402489;28;20048;-83
2022/06/25 09:14:19;;;;;;;7.72;2.80;;;;;;;;;;8411354;28;20056;-83
2022/06/25 09:18:22;;;;;;;5.97;2.45;;;;;;;;;;8404403;28;20048;-85
2022/06/25 09:22:26;;;;;;;3.83;2.33;;;;;;;;;;8413348;28;20051;-83
2022/06/25 09:26:29;;;;;;;4.78;2.70;;;;;;;;;;8412452;28;20136;-81
2022/06/25 09:30:34;;;;;;;5.20;2.40;;;;;;;;;;8408550;28;20477;-82
2022/06/25 09:34:38;;;;;;;5.72;2.20;;;;;;;;;;8409547;28;20040;-83
2022/06/25 09:38:49;;;;;;;3.97;2.25;;;;;;;;;;8415061;28;20487;-90
2022/06/25 09:42:52;;;;;;;6.68;2.60;;;;;;;;;;8421979;28;20405;-87
2022/06/25 09:46:58;;;;;;;41.53;24.67;;;;;;;;;;8404083;28;20044;-81
2022/06/25 09:51:10;;;;;;;5.43;2.88;;;;;;;;;;8412472;28;20048;-83
2022/06/25 09:55:14;;;;;;;4.78;2.20;;;;;;;;;;8430923;28;20475;-88
2022/06/25 09:59:18;;;;;;;5.68;3.20;;;;;;;;;;8430668;28;20075;-88
2022/06/25 10:03:27;;;;;;;6.13;4.43;;;;;;;;;;8424443;28;20048;-88
2022/06/25 10:11:54;;;;;;;6.25;2.80;;;;;;;;;;8426773;28;20451;-88
2022/06/25 10:15:58;;;;;;;13.05;8.93;;;;;;;;;;8413716;28;20098;-90
2022/06/25 10:20:04;;;;;;;5.32;2.35;;;;;;;;;;8423103;28;20389;-89
2022/06/25 10:24:08;;;;;;;3.35;2.53;;;;;;;;;;8418401;28;20441;-83
2022/06/25 10:28:14;;;;;;;5.65;2.80;;;;;;;;;;8416400;28;20051;-82
2022/06/25 10:32:17;;;;;;;5.38;2.90;;;;;;;;;;8419060;28;20044;-84
2022/06/25 10:36:40;;;;;;;4.13;2.60;;;;;;;;;;8425214;28;20426;-84
2022/06/25 10:40:53;;;;;;;4.88;2.70;;;;;;;;;;8410661;28;20120;-83
2022/06/25 10:44:56;;;;;;;4.85;2.40;;;;;;;;;;8419866;28;20112;-84
2022/06/25 10:49:08;;;;;;;5.43;2.13;;;;;;;;;;8858790;22;20055;-91
2022/06/25 10:53:25;;;;;;;3.53;2.35;;;;;;;;;;8299533;28;20061;-92
2022/06/25 10:57:43;;;;;;;3.55;2.30;;;;;;;;;;8302641;28;20046;-92
2022/06/25 11:01:59;;;;;;;2.88;2.20;;;;;;;;;;8301236;28;20112;-93
2022/06/25 11:06:24;;;;;;;3.83;2.30;;;;;;;;;;8300498;28;20053;-94
2022/06/25 11:10:38;;;;;;;3.22;2.33;;;;;;;;;;8286317;28;20160;-93
2022/06/25 11:14:42;;;;;;;3.80;2.10;;;;;;;;;;8303285;28;20124;-93
2022/06/25 11:19:16;;;;;;;3.55;2.25;;;;;;;;;;8308155;28;20080;-93
2022/06/25 11:23:20;;;;;;;4.18;2.00;;;;;;;;;;8363572;22;20061;-94
2022/06/25 11:31:46;;;;;;;4.40;2.15;;;;;;;;;;8360969;28;20045;-94
2022/06/25 11:35:52;;;;;;;5.82;2.10;;;;;;;;;;8382146;28;20040;-95
2022/06/25 11:39:56;;;;;;;4.38;2.25;;;;;;;;;;8366458;28;20029;-94
2022/06/25 11:44:23;;;;;;;2.70;1.90;;;;;;;;;;8348863;28;20047;-94
2022/06/25 11:48:37;;;;;;;2.22;2.00;;;;;;;;;;8623112;22;20440;-93
2022/06/25 11:52:57;;;;;;;;;;;;;;;;;;;;;
2022/06/25 12:02:06;;;;;;;8.77;2.10;;;;;;;;;;8652250;23;20137;-93
2022/06/25 12:06:11;;;;;;;2.97;1.90;;;;;;;;;;8363547;28;20539;-93
2022/06/25 12:15:39;;;;;;;3.45;2.10;;;;;;;;;;8356037;28;20049;-90
2022/06/25 12:24:31;;;;;;;3.17;2.38;;;;;;;;;;8370108;22;20516;-93
2022/06/25 12:28:52;;;;;;;2.92;1.90;;;;;;;;;;8327206;28;20045;-90
2022/06/25 12:33:31;;;;;;;4.53;2.20;;;;;;;;;;8357627;28;20044;-92
2022/06/25 12:37:38;;;;;;;3.45;2.00;;;;;;;;;;8350916;28;20049;-90
2022/06/25 12:41:51;;;;;;;4.95;2.10;;;;;;;;;;8325126;28;20055;-90
2022/06/25 12:45:55;;;;;;;2.42;1.88;;;;;;;;;;8349148;28;20049;-91
2022/06/25 12:50:00;;;;;;;8.40;2.00;;;;;;;;;;8336824;28;20040;-90
2022/06/25 12:54:03;;;;;;;5.03;2.08;;;;;;;;;;8359491;28;20087;-93
2022/06/25 12:58:13;;;;;;;3.50;2.13;;;;;;;;;;8355811;28;20377;-91
2022/06/25 13:02:16;;;;;;;6.05;2.40;;;;;;;;;;8345804;28;20053;-91
2022/06/25 13:06:36;;;;;;;3.67;2.30;;;;;;;;;;8335564;28;20100;-91
2022/06/25 13:10:43;;;;;;;5.65;2.13;;;;;;;;;;8344322;28;20041;-91
2022/06/25 13:14:47;;;;;;;3.33;1.90;;;;;;;;;;8346342;28;20044;-95
2022/06/25 13:18:51;;;;;;;2.65;1.90;;;;;;;;;;8335788;23;20057;-91
2022/06/25 13:27:43;;;;;;;3.13;2.33;;;;;;;;;;8337365;22;20054;-90
2022/06/25 13:31:53;;;;;;;3.30;2.00;;;;;;;;;;8290074;28;20037;-91
2022/06/25 13:35:56;;;;;;;3.25;2.05;;;;;;;;;;8713349;23;20053;-84
2022/06/25 13:39:59;;;;;;;5.80;1.85;;;;;;;;;;8359373;28;20036;-83
2022/06/25 13:44:03;;;;;;;2.15;1.85;;;;;;;;;;8358587;28;20545;-83
2022/06/25 13:48:09;;;;;;;2.65;2.00;;;;;;;;;;8359795;28;20076;-84
2022/06/25 13:52:14;;;;;;;3.05;1.80;;;;;;;;;;8355987;28;20056;-84
2022/06/25 13:56:18;;;;;;;3.97;2.15;;;;;;;;;;8354465;28;20037;-86
2022/06/25 14:00:22;;;;;;;2.55;2.03;;;;;;;;;;8355138;28;20041;-84
2022/06/25 14:04:28;;;;;;;3.15;1.77;;;;;;;;;;8356037;28;20053;-83
2022/06/25 14:08:33;;;;;;;3.90;2.03;;;;;;;;;;8355531;28;20124;-84
2022/06/25 14:12:36;;;;;;;3.45;1.80;;;;;;;;;;8356809;28;20037;-83
2022/06/25 14:16:40;;;;;;;3.95;2.00;;;;;;;;;;8360379;28;20495;-83
2022/06/25 14:20:47;;;;;;;2.55;2.00;;;;;;;;;;8357056;28;20404;-86
2022/06/25 14:29:11;;;;;;;3.25;2.00;;;;;;;;;;8357688;28;20146;-86
2022/06/25 14:33:14;;;;;;;5.15;2.03;;;;;;;;;;8356876;28;20385;-84
2022/06/25 14:45:59;;;;;;;6.75;2.22;;;;;;;;;;8363043;28;20067;-84
2022/06/25 14:50:02;;;;;;;2.95;2.00;;;;;;;;;;8363692;28;20057;-86
2022/06/25 14:54:07;;;;;;;3.55;2.05;;;;;;;;;;8364666;28;20447;-83
2022/06/25 14:58:10;;;;;;;6.28;2.20;;;;;;;;;;8363172;28;20052;-83
2022/06/25 15:02:14;;;;;;;6.53;2.75;;;;;;;;;;8357876;28;20451;-87
2022/06/25 15:06:18;;;;;;;5.90;2.78;;;;;;;;;;8361468;28;20045;-83
2022/06/25 15:10:24;;;;;;;6.13;2.92;;;;;;;;;;8359165;28;20500;-83
2022/06/25 15:14:27;;;;;;;3.95;2.78;;;;;;;;;;8353544;28;20072;-83
2022/06/25 15:18:31;;;;;;;3.72;2.75;;;;;;;;;;8358631;28;20094;-84
2022/06/25 15:22:35;;;;;;;5.28;2.53;;;;;;;;;;8320294;28;20056;-81
2022/06/25 15:26:40;;;;;;;8.57;2.88;;;;;;;;;;8356187;28;20556;-83
2022/06/25 15:30:42;;;;;;;5.88;3.10;;;;;;;;;;8352568;28;20437;-83
2022/06/25 15:34:46;;;;;;;4.30;2.70;;;;;;;;;;8355050;28;20140;-86
2022/06/25 15:38:49;;;;;;;3.88;2.70;;;;;;;;;;8352690;28;21641;-84
2022/06/25 15:42:53;;;;;;;4.18;2.78;;;;;;;;;;8357162;28;20049;-84
2022/06/25 15:46:56;;;;;;;3.03;2.60;;;;;;;;;;8356298;28;20099;-84
2022/06/25 15:50:59;;;;;;;4.00;2.65;;;;;;;;;;8351114;28;20055;-84
2022/06/25 15:55:02;;;;;;;8.90;2.95;;;;;;;;;;8353840;28;20079;-84
2022/06/25 16:03:26;;;;;;;5.30;3.10;;;;;;;;;;8353966;28;20053;-84
2022/06/25 16:07:30;;;;;;;6.97;2.85;;;;;;;;;;8356053;28;20056;-84
2022/06/25 16:11:33;;;;;;;4.80;2.85;;;;;;;;;;8354876;28;20076;-82
2022/06/25 16:15:38;;;;;;;4.75;2.63;;;;;;;;;;8355691;28;20474;-84
2022/06/25 16:19:41;;;;;;;4.35;2.80;;;;;;;;;;8355531;28;20040;-83
2022/06/25 16:23:44;;;;;;;4.28;2.45;;;;;;;;;;8355648;28;20853;-83
2022/06/25 16:27:47;;;;;;;3.60;2.55;;;;;;;;;;8355908;28;20155;-83
2022/06/25 16:31:54;;;;;;;6.05;2.47;;;;;;;;;;8330625;28;20493;-84
2022/06/25 16:36:05;;;;;;;4.78;2.70;;;;;;;;;;8344959;28;20077;-83
2022/06/25 16:40:11;;;;;;;4.75;3.40;;;;;;;;;;8326154;28;20052;-81
2022/06/25 16:44:16;;;;;;;3.47;2.63;;;;;;;;;;8303544;28;20041;-83
2022/06/25 16:48:31;;;;;;;14.75;8.13;;;;;;;;;;8326463;28;20049;-85
2022/06/25 16:52:37;;;;;;;22.48;9.20;;;;;;;;;;8330054;28;20473;-83
2022/06/25 16:56:54;;;;;;;7.20;3.88;;;;;;;;;;8324278;28;20041;-84
2022/06/25 17:01:49;;;;;;;18.92;7.60;;;;;;;;;;8327183;28;20046;-82
2022/06/25 17:06:14;;;;;;;4.05;3.08;;;;;;;;;;8331174;28;20060;-84
2022/06/25 17:10:21;;;;;;;6.05;3.20;;;;;;;;;;8327555;28;20473;-83
2022/06/25 17:14:24;;;;;;;4.68;3.20;;;;;;;;;;8328357;28;20158;-83
2022/06/25 17:18:28;;;;;;;5.40;3.13;;;;;;;;;;8329726;28;20392;-84
2022/06/25 17:22:34;;;;;;;9.65;3.30;;;;;;;;;;8335221;28;20041;-84
2022/06/25 17:26:38;;;;;;;3.75;2.90;;;;;;;;;;8328190;28;20048;-83
2022/06/25 17:30:44;;;;;;;4.97;2.70;;;;;;;;;;8328661;28;20096;-84
2022/06/25 17:34:47;;;;;;;6.82;3.45;;;;;;;;;;8328582;28;20484;-85
2022/06/25 17:38:52;;;;;;;4.20;2.83;;;;;;;;;;8324114;28;20486;-84
2022/06/25 17:42:55;;;;;;;3.25;2.50;;;;;;;;;;8329688;28;20053;-86
2022/06/25 17:46:59;;;;;;;4.40;2.65;;;;;;;;;;8328834;28;20512;-85
2022/06/25 17:51:03;;;;;;;4.65;2.83;;;;;;;;;;8326528;28;20449;-83
2022/06/25 17:55:09;;;;;;;5.75;3.15;;;;;;;;;;8326957;28;20045;-84
2022/06/25 17:59:12;;;;;;;5.25;3.05;;;;;;;;;;8323686;28;20561;-84
2022/06/25 18:03:15;;;;;;;4.60;2.78;;;;;;;;;;8324297;28;20412;-85
2022/06/25 18:07:19;;;;;;;3.88;2.65;;;;;;;;;;8329137;28;20088;-84
2022/06/25 18:11:25;;;;;;;6.95;2.95;;;;;;;;;;8342403;28;20548;-84
2022/06/25 18:15:29;;;;;;;4.38;2.80;;;;;;;;;;8354829;28;20120;-85
2022/06/25 18:19:35;;;;;;;10.68;4.97;;;;;;;;;;8351403;28;20590;-85
2022/06/25 18:23:40;;;;;;;5.80;3.83;;;;;;;;;;8340080;28;20473;-86
2022/06/25 18:27:45;;;;;;;7.28;4.30;;;;;;;;;;8346097;28;20045;-87
2022/06/25 18:31:48;;;;;;;12.10;6.43;;;;;;;;;;8340603;28;20041;-87
2022/06/25 18:35:51;;;;;;;26.02;17.08;;;;;;;;;;8330130;28;20050;-85
2022/06/25 18:39:54;;;;;;;24.80;17.25;;;;;;;;;;8311360;28;20486;-86
2022/06/25 18:44:00;;;;;;;42.20;28.58;;;;;;;;;;8316054;28;20045;-86
2022/06/25 18:48:02;;;;;;;40.95;26.90;;;;;;;;;;8298063;28;20140;-87
2022/06/25 18:52:18;;;;;;;27.40;18.73;;;;;;;;;;8312333;28;20080;-86
2022/06/25 18:56:25;;;;;;;22.33;11.55;;;;;;;;;;8310443;28;20560;-86
2022/06/25 19:00:34;;;;;;;15.60;9.40;;;;;;;;;;8293074;28;20042;-86
2022/06/25 19:04:38;;;;;;;12.30;8.00;;;;;;;;;;8300446;28;20125;-86
2022/06/25 19:08:43;;;;;;;96.55;59.08;;;;;;;;;;8294093;28;20113;-87
2022/06/25 19:12:47;;;;;;;88.50;58.00;;;;;;;;;;8285087;28;20072;-86
2022/06/25 19:16:52;;;;;;;112.65;68.78;;;;;;;;;;8285344;28;20050;-85
2022/06/25 19:20:56;;;;;;;69.50;45.72;;;;;;;;;;8297308;28;20052;-86
2022/06/25 19:25:00;;;;;;;29.35;18.13;;;;;;;;;;8293657;28;20041;-84
2022/06/25 19:29:06;;;;;;;14.18;8.02;;;;;;;;;;8298122;28;20095;-84
2022/06/25 19:33:16;;;;;;;11.55;6.10;;;;;;;;;;8297901;28;20457;-85
2022/06/25 19:37:19;;;;;;;7.93;5.10;;;;;;;;;;8291809;28;20460;-84
2022/06/25 19:41:43;;;;;;;10.35;5.50;;;;;;;;;;8295008;28;20075;-86
2022/06/25 19:45:51;;;;;;;8.55;4.68;;;;;;;;;;8292143;28;20050;-83
2022/06/25 19:50:02;;;;;;;10.93;4.57;;;;;;;;;;8296874;28;20046;-84
2022/06/25 19:54:06;;;;;;;10.80;4.05;;;;;;;;;;8304584;28;20072;-85
2022/06/25 19:58:09;;;;;;;8.80;4.38;;;;;;;;;;8305560;28;20049;-85
2022/06/25 20:02:14;;;;;;;8.48;4.72;;;;;;;;;;8306056;28;20490;-82
2022/06/25 20:06:18;;;;;;;7.28;4.65;;;;;;;;;;8304914;28;20417;-84
2022/06/25 20:10:22;;;;;;;8.27;4.30;;;;;;;;;;8298465;28;20437;-84
2022/06/25 20:14:25;;;;;;;7.53;4.22;;;;;;;;;;8301085;28;20045;-83
2022/06/25 20:18:28;;;;;;;8.05;4.40;;;;;;;;;;8303625;28;20125;-84
2022/06/25 20:22:33;;;;;;;6.50;4.25;;;;;;;;;;8308052;28;20049;-83
2022/06/25 20:26:36;;;;;;;10.38;4.60;;;;;;;;;;8308320;28;20096;-83
2022/06/25 20:30:41;;;;;;;5.72;3.53;;;;;;;;;;8287173;28;20049;-83
2022/06/25 20:34:48;;;;;;;7.25;3.88;;;;;;;;;;8303819;28;20141;-84
2022/06/25 20:38:59;;;;;;;6.22;4.20;;;;;;;;;;8304370;28;20057;-82
2022/06/25 20:43:02;;;;;;;7.78;4.00;;;;;;;;;;8297938;28;20414;-84
2022/06/25 20:47:07;;;;;;;6.15;4.20;;;;;;;;;;8304618;28;20124;-84
2022/06/25 20:51:10;;;;;;;4.97;3.45;;;;;;;;;;8303379;28;21723;-85
2022/06/25 20:55:16;;;;;;;6.88;3.97;;;;;;;;;;8309552;28;20133;-85
2022/06/25 20:59:19;;;;;;;5.63;3.78;;;;;;;;;;8299052;28;20052;-84
2022/06/25 21:12:11;;;;;;;7.97;4.43;;;;;;;;;;8279251;28;20093;-84
2022/06/25 21:16:13;;;;;;;5.88;3.90;;;;;;;;;;8292587;28;20046;-85
2022/06/25 21:20:16;;;;;;;5.63;3.85;;;;;;;;;;8297253;28;20128;-85
2022/06/25 21:24:20;;;;;;;8.32;3.72;;;;;;;;;;8297652;28;20045;-85
2022/06/25 21:28:25;;;;;;;5.95;3.60;;;;;;;;;;8291999;28;20050;-87
2022/06/25 21:32:28;;;;;;;6.93;4.25;;;;;;;;;;8292532;28;20095;-86
2022/06/25 21:36:32;;;;;;;6.63;3.80;;;;;;;;;;8331741;28;20052;-88
2022/06/25 21:40:35;;;;;;;5.07;3.45;;;;;;;;;;8359240;28;20129;-87
2022/06/25 21:44:40;;;;;;;9.50;4.13;;;;;;;;;;8360287;28;20052;-87
2022/06/25 21:48:42;;;;;;;8.40;3.75;;;;;;;;;;8360616;28;20041;-86
2022/06/25 21:52:47;;;;;;;8.10;4.40;;;;;;;;;;8359415;28;20060;-86
2022/06/25 21:56:51;;;;;;;9.27;4.47;;;;;;;;;;8356769;28;20390;-87
2022/06/25 22:00:56;;;;;;;5.55;3.72;;;;;;;;;;8359338;28;20060;-87
2022/06/25 22:04:59;;;;;;;5.60;3.70;;;;;;;;;;8359624;28;20548;-86
2022/06/25 22:09:02;;;;;;;6.47;4.00;;;;;;;;;;8360075;28;20048;-86
2022/06/25 22:13:07;;;;;;;7.30;3.78;;;;;;;;;;8359232;28;20049;-86
2022/06/25 22:17:11;;;;;;;8.90;3.80;;;;;;;;;;8360934;28;20070;-86
2022/06/25 22:21:14;;;;;;;6.88;4.35;;;;;;;;;;8358201;28;20075;-86
2022/06/25 22:25:17;;;;;;;6.97;3.80;;;;;;;;;;8358127;28;20057;-83
2022/06/25 22:29:20;;;;;;;7.95;3.97;;;;;;;;;;8360725;28;20045;-83
2022/06/25 22:33:25;;;;;;;6.13;4.90;;;;;;;;;;8360825;28;20120;-83
2022/06/25 22:37:27;;;;;;;5.32;3.95;;;;;;;;;;8355354;28;20049;-85
2022/06/25 22:41:30;;;;;;;6.10;4.15;;;;;;;;;;8360482;28;20040;-84
2022/06/25 22:45:33;;;;;;;6.75;4.10;;;;;;;;;;8360153;28;20094;-85
2022/06/25 22:49:37;;;;;;;6.68;4.15;;;;;;;;;;8356774;28;20124;-84
2022/06/25 22:53:40;;;;;;;6.10;4.13;;;;;;;;;;8359238;28;20480;-84
2022/06/25 22:57:42;;;;;;;6.22;4.15;;;;;;;;;;8360722;28;20041;-82
2022/06/25 23:01:45;;;;;;;6.47;4.38;;;;;;;;;;8363130;28;20051;-83
2022/06/25 23:05:49;;;;;;;7.63;4.40;;;;;;;;;;8363164;28;20126;-84
2022/06/25 23:09:53;;;;;;;8.82;4.55;;;;;;;;;;8366515;28;20060;-87
2022/06/25 23:13:56;;;;;;;7.00;4.20;;;;;;;;;;8366160;28;20041;-87
2022/06/25 23:17:59;;;;;;;9.52;3.97;;;;;;;;;;8365932;28;20041;-87
2022/06/25 23:22:03;;;;;;;5.35;4.00;;;;;;;;;;8364023;28;20037;-85
2022/06/25 23:26:05;;;;;;;6.53;4.25;;;;;;;;;;8365809;28;20048;-85
2022/06/25 23:30:10;;;;;;;5.45;4.20;;;;;;;;;;8363685;28;20059;-84
2022/06/25 23:34:13;;;;;;;9.52;4.72;;;;;;;;;;8361994;28;20048;-83
2022/06/25 23:38:17;;;;;;;7.43;4.18;;;;;;;;;;8364645;28;20056;-84
2022/06/25 23:42:20;;;;;;;6.53;4.38;;;;;;;;;;8364697;28;20033;-84
2022/06/25 23:46:23;;;;;;;5.90;4.00;;;;;;;;;;8363648;28;20056;-84
2022/06/25 23:50:25;;;;;;;8.05;4.18;;;;;;;;;;8363950;28;20056;-84
2022/06/25 23:54:30;;;;;;;7.85;4.50;;;;;;;;;;8363080;28;20048;-85
2022/06/25 23:58:32;;;;;;;17.05;3.97;;;;;;;;;;8363870;28;20488;-85
